sensor_id;sensor_type;location;lat;lon;timestamp;temperature;humidity
22645;DHT22;11489;50.834;6.752;2023-10-08T00:01:29;19.40;71.60
22645;DHT22;11489;50.834;6.752;2023-10-08T00:03:54;19.30;71.50
22645;DHT22;11489;50.834;6.752;2023-10-08T00:06:23;19.30;71.50
22645;DHT22;11489;50.834;6.752;2023-10-08T00:08:50;19.30;71.50
22645;DHT22;11489;50.834;6.752;2023-10-08T00:11:17;19.20;71.40
22645;DHT22;11489;50.834;6.752;2023-10-08T00:13:43;19.30;71.40
22645;DHT22;11489;50.834;6.752;2023-10-08T00:16:10;19.20;71.30
22645;DHT22;11489;50.834;6.752;2023-10-08T00:18:39;19.20;71.30
22645;DHT22;11489;50.834;6.752;2023-10-08T00:21:14;19.20;71.10
22645;DHT22;11489;50.834;6.752;2023-10-08T00:23:40;19.10;71.30
22645;DHT22;11489;50.834;6.752;2023-10-08T00:26:10;19.00;71.20
22645;DHT22;11489;50.834;6.752;2023-10-08T00:28:36;19.00;71.20
22645;DHT22;11489;50.834;6.752;2023-10-08T00:31:02;18.90;71.30
22645;DHT22;11489;50.834;6.752;2023-10-08T00:33:38;18.90;71.40
22645;DHT22;11489;50.834;6.752;2023-10-08T00:36:05;18.80;71.30
22645;DHT22;11489;50.834;6.752;2023-10-08T00:38:43;18.80;71.40
22645;DHT22;11489;50.834;6.752;2023-10-08T00:41:16;18.70;71.50
22645;DHT22;11489;50.834;6.752;2023-10-08T00:43:47;18.60;71.60
22645;DHT22;11489;50.834;6.752;2023-10-08T00:46:13;18.50;71.70
22645;DHT22;11489;50.834;6.752;2023-10-08T00:48:53;18.50;71.80
22645;DHT22;11489;50.834;6.752;2023-10-08T00:51:24;18.50;71.90
22645;DHT22;11489;50.834;6.752;2023-10-08T00:54:01;18.40;71.90
22645;DHT22;11489;50.834;6.752;2023-10-08T00:56:35;18.40;72.00
22645;DHT22;11489;50.834;6.752;2023-10-08T00:59:21;18.40;72.20
22645;DHT22;11489;50.834;6.752;2023-10-08T01:01:49;18.30;72.20
22645;DHT22;11489;50.834;6.752;2023-10-08T01:04:25;18.30;72.30
22645;DHT22;11489;50.834;6.752;2023-10-08T01:06:54;18.30;72.50
22645;DHT22;11489;50.834;6.752;2023-10-08T01:09:24;18.30;72.50
22645;DHT22;11489;50.834;6.752;2023-10-08T01:12:17;18.20;72.50
22645;DHT22;11489;50.834;6.752;2023-10-08T01:14:49;18.20;72.00
22645;DHT22;11489;50.834;6.752;2023-10-08T01:17:16;18.10;72.60
22645;DHT22;11489;50.834;6.752;2023-10-08T01:19:48;18.10;72.60
22645;DHT22;11489;50.834;6.752;2023-10-08T01:22:19;18.10;72.40
22645;DHT22;11489;50.834;6.752;2023-10-08T01:24:47;18.10;72.70
22645;DHT22;11489;50.834;6.752;2023-10-08T01:27:20;18.00;72.60
22645;DHT22;11489;50.834;6.752;2023-10-08T01:29:53;18.00;72.30
22645;DHT22;11489;50.834;6.752;2023-10-08T01:32:20;17.90;72.50
22645;DHT22;11489;50.834;6.752;2023-10-08T01:34:47;17.90;72.60
22645;DHT22;11489;50.834;6.752;2023-10-08T01:37:17;17.80;72.60
22645;DHT22;11489;50.834;6.752;2023-10-08T01:39:44;17.70;72.60
22645;DHT22;11489;50.834;6.752;2023-10-08T01:42:14;17.70;72.70
22645;DHT22;11489;50.834;6.752;2023-10-08T01:44:44;17.70;72.80
22645;DHT22;11489;50.834;6.752;2023-10-08T01:47:13;17.60;72.80
22645;DHT22;11489;50.834;6.752;2023-10-08T01:49:39;17.50;72.80
22645;DHT22;11489;50.834;6.752;2023-10-08T01:52:06;17.50;72.90
22645;DHT22;11489;50.834;6.752;2023-10-08T01:54:39;17.40;72.90
22645;DHT22;11489;50.834;6.752;2023-10-08T01:57:05;17.30;73.10
22645;DHT22;11489;50.834;6.752;2023-10-08T01:59:34;17.20;73.10
22645;DHT22;11489;50.834;6.752;2023-10-08T02:02:02;17.20;73.30
22645;DHT22;11489;50.834;6.752;2023-10-08T02:04:28;17.10;73.40
22645;DHT22;11489;50.834;6.752;2023-10-08T02:06:53;17.00;73.50
22645;DHT22;11489;50.834;6.752;2023-10-08T02:09:19;17.00;73.70
22645;DHT22;11489;50.834;6.752;2023-10-08T02:11:51;17.00;73.90
22645;DHT22;11489;50.834;6.752;2023-10-08T02:14:19;16.90;74.00
22645;DHT22;11489;50.834;6.752;2023-10-08T02:16:50;16.90;74.00
22645;DHT22;11489;50.834;6.752;2023-10-08T02:19:18;16.80;74.00
22645;DHT22;11489;50.834;6.752;2023-10-08T02:21:53;16.80;74.20
22645;DHT22;11489;50.834;6.752;2023-10-08T02:24:20;16.80;74.40
22645;DHT22;11489;50.834;6.752;2023-10-08T02:26:53;16.70;74.40
22645;DHT22;11489;50.834;6.752;2023-10-08T02:29:25;16.70;74.40
22645;DHT22;11489;50.834;6.752;2023-10-08T02:31:51;16.60;74.40
22645;DHT22;11489;50.834;6.752;2023-10-08T02:34:18;16.60;74.40
22645;DHT22;11489;50.834;6.752;2023-10-08T02:36:45;16.50;74.40
22645;DHT22;11489;50.834;6.752;2023-10-08T02:39:13;16.50;74.60
22645;DHT22;11489;50.834;6.752;2023-10-08T02:41:51;16.40;74.70
22645;DHT22;11489;50.834;6.752;2023-10-08T02:44:18;16.40;75.50
22645;DHT22;11489;50.834;6.752;2023-10-08T02:46:47;16.30;74.90
22645;DHT22;11489;50.834;6.752;2023-10-08T02:49:14;16.30;75.10
22645;DHT22;11489;50.834;6.752;2023-10-08T02:51:45;16.30;75.20
22645;DHT22;11489;50.834;6.752;2023-10-08T02:54:11;16.20;75.30
22645;DHT22;11489;50.834;6.752;2023-10-08T02:56:53;16.20;75.40
22645;DHT22;11489;50.834;6.752;2023-10-08T02:59:28;16.10;75.40
22645;DHT22;11489;50.834;6.752;2023-10-08T03:01:54;16.10;75.60
22645;DHT22;11489;50.834;6.752;2023-10-08T03:04:23;16.00;75.70
22645;DHT22;11489;50.834;6.752;2023-10-08T03:06:49;16.00;76.00
22645;DHT22;11489;50.834;6.752;2023-10-08T03:09:19;15.90;76.20
22645;DHT22;11489;50.834;6.752;2023-10-08T03:11:57;15.90;76.40
22645;DHT22;11489;50.834;6.752;2023-10-08T03:14:24;15.90;76.60
22645;DHT22;11489;50.834;6.752;2023-10-08T03:16:53;15.80;76.70
22645;DHT22;11489;50.834;6.752;2023-10-08T03:19:21;15.80;76.80
22645;DHT22;11489;50.834;6.752;2023-10-08T03:21:47;15.80;77.00
22645;DHT22;11489;50.834;6.752;2023-10-08T03:24:19;15.80;77.10
22645;DHT22;11489;50.834;6.752;2023-10-08T03:27:01;15.80;77.20
22645;DHT22;11489;50.834;6.752;2023-10-08T03:29:38;15.80;77.40
22645;DHT22;11489;50.834;6.752;2023-10-08T03:32:11;15.80;77.40
22645;DHT22;11489;50.834;6.752;2023-10-08T03:34:48;15.80;77.50
22645;DHT22;11489;50.834;6.752;2023-10-08T03:37:16;15.80;77.60
22645;DHT22;11489;50.834;6.752;2023-10-08T03:39:55;15.80;77.70
22645;DHT22;11489;50.834;6.752;2023-10-08T03:42:46;15.90;77.80
22645;DHT22;11489;50.834;6.752;2023-10-08T03:45:15;15.90;77.70
22645;DHT22;11489;50.834;6.752;2023-10-08T03:47:48;15.90;77.80
22645;DHT22;11489;50.834;6.752;2023-10-08T03:50:29;15.90;77.80
22645;DHT22;11489;50.834;6.752;2023-10-08T03:53:06;15.90;77.90
22645;DHT22;11489;50.834;6.752;2023-10-08T03:55:38;15.90;77.90
22645;DHT22;11489;50.834;6.752;2023-10-08T03:58:07;16.00;77.90
22645;DHT22;11489;50.834;6.752;2023-10-08T04:00:36;16.00;77.80
22645;DHT22;11489;50.834;6.752;2023-10-08T04:03:07;16.00;77.80
22645;DHT22;11489;50.834;6.752;2023-10-08T04:05:37;16.00;77.80
22645;DHT22;11489;50.834;6.752;2023-10-08T04:08:10;16.00;77.80
22645;DHT22;11489;50.834;6.752;2023-10-08T04:11:11;16.00;77.80
22645;DHT22;11489;50.834;6.752;2023-10-08T04:13:55;16.00;77.80
22645;DHT22;11489;50.834;6.752;2023-10-08T04:16:20;16.00;78.20
22645;DHT22;11489;50.834;6.752;2023-10-08T04:18:47;16.00;77.80
22645;DHT22;11489;50.834;6.752;2023-10-08T04:21:17;16.00;77.80
22645;DHT22;11489;50.834;6.752;2023-10-08T04:23:46;16.00;78.00
22645;DHT22;11489;50.834;6.752;2023-10-08T04:26:19;15.90;78.10
22645;DHT22;11489;50.834;6.752;2023-10-08T04:28:56;15.90;78.20
22645;DHT22;11489;50.834;6.752;2023-10-08T04:31:31;15.90;78.30
22645;DHT22;11489;50.834;6.752;2023-10-08T04:34:09;15.90;78.30
22645;DHT22;11489;50.834;6.752;2023-10-08T04:36:44;15.90;78.30
22645;DHT22;11489;50.834;6.752;2023-10-08T04:39:22;15.90;78.40
22645;DHT22;11489;50.834;6.752;2023-10-08T04:41:52;15.90;78.40
22645;DHT22;11489;50.834;6.752;2023-10-08T04:44:19;15.90;78.40
22645;DHT22;11489;50.834;6.752;2023-10-08T04:46:47;15.80;78.40
22645;DHT22;11489;50.834;6.752;2023-10-08T04:49:14;15.90;78.60
22645;DHT22;11489;50.834;6.752;2023-10-08T04:52:04;15.90;78.60
22645;DHT22;11489;50.834;6.752;2023-10-08T04:54:44;15.90;78.50
22645;DHT22;11489;50.834;6.752;2023-10-08T04:57:22;15.80;78.60
22645;DHT22;11489;50.834;6.752;2023-10-08T04:59:49;15.90;78.60
22645;DHT22;11489;50.834;6.752;2023-10-08T05:02:16;15.80;78.70
22645;DHT22;11489;50.834;6.752;2023-10-08T05:04:49;15.80;78.70
22645;DHT22;11489;50.834;6.752;2023-10-08T05:07:21;15.80;78.80
22645;DHT22;11489;50.834;6.752;2023-10-08T05:10:06;15.80;78.70
22645;DHT22;11489;50.834;6.752;2023-10-08T05:12:33;15.80;78.60
22645;DHT22;11489;50.834;6.752;2023-10-08T05:14:59;15.80;79.40
22645;DHT22;11489;50.834;6.752;2023-10-08T05:17:45;15.80;78.70
22645;DHT22;11489;50.834;6.752;2023-10-08T05:20:23;15.70;78.70
22645;DHT22;11489;50.834;6.752;2023-10-08T05:23:16;15.70;78.70
22645;DHT22;11489;50.834;6.752;2023-10-08T05:25:57;15.70;78.70
22645;DHT22;11489;50.834;6.752;2023-10-08T05:28:32;15.60;78.70
22645;DHT22;11489;50.834;6.752;2023-10-08T05:31:11;15.50;78.70
22645;DHT22;11489;50.834;6.752;2023-10-08T05:33:40;15.50;78.90
22645;DHT22;11489;50.834;6.752;2023-10-08T05:36:24;15.40;78.90
22645;DHT22;11489;50.834;6.752;2023-10-08T05:39:04;15.40;79.10
22645;DHT22;11489;50.834;6.752;2023-10-08T05:41:53;15.30;79.20
22645;DHT22;11489;50.834;6.752;2023-10-08T05:44:39;15.30;79.30
22645;DHT22;11489;50.834;6.752;2023-10-08T05:47:06;15.20;79.40
22645;DHT22;11489;50.834;6.752;2023-10-08T05:49:50;15.20;79.60
22645;DHT22;11489;50.834;6.752;2023-10-08T05:52:34;15.20;79.80
22645;DHT22;11489;50.834;6.752;2023-10-08T05:55:30;15.20;79.90
22645;DHT22;11489;50.834;6.752;2023-10-08T05:58:08;15.20;80.10
22645;DHT22;11489;50.834;6.752;2023-10-08T06:00:51;15.20;80.10
22645;DHT22;11489;50.834;6.752;2023-10-08T06:03:20;15.20;80.20
22645;DHT22;11489;50.834;6.752;2023-10-08T06:05:59;15.10;80.20
22645;DHT22;11489;50.834;6.752;2023-10-08T06:08:38;15.10;80.30
22645;DHT22;11489;50.834;6.752;2023-10-08T06:11:16;15.20;80.50
22645;DHT22;11489;50.834;6.752;2023-10-08T06:13:53;15.20;80.60
22645;DHT22;11489;50.834;6.752;2023-10-08T06:16:26;15.10;80.60
22645;DHT22;11489;50.834;6.752;2023-10-08T06:19:08;15.20;80.70
22645;DHT22;11489;50.834;6.752;2023-10-08T06:21:36;15.20;80.80
22645;DHT22;11489;50.834;6.752;2023-10-08T06:24:03;15.20;80.90
22645;DHT22;11489;50.834;6.752;2023-10-08T06:26:36;15.20;80.90
22645;DHT22;11489;50.834;6.752;2023-10-08T06:29:04;15.20;81.00
22645;DHT22;11489;50.834;6.752;2023-10-08T06:31:46;15.20;81.10
22645;DHT22;11489;50.834;6.752;2023-10-08T06:34:17;15.30;81.20
22645;DHT22;11489;50.834;6.752;2023-10-08T06:36:47;15.30;81.30
22645;DHT22;11489;50.834;6.752;2023-10-08T06:39:13;15.30;81.30
22645;DHT22;11489;50.834;6.752;2023-10-08T06:41:45;15.40;81.40
22645;DHT22;11489;50.834;6.752;2023-10-08T06:44:12;15.40;81.50
22645;DHT22;11489;50.834;6.752;2023-10-08T06:46:41;15.50;81.60
22645;DHT22;11489;50.834;6.752;2023-10-08T06:49:08;15.50;81.70
22645;DHT22;11489;50.834;6.752;2023-10-08T06:51:41;15.50;81.70
22645;DHT22;11489;50.834;6.752;2023-10-08T06:54:09;15.60;81.80
22645;DHT22;11489;50.834;6.752;2023-10-08T06:56:39;15.70;81.80
22645;DHT22;11489;50.834;6.752;2023-10-08T06:59:12;15.70;81.80
22645;DHT22;11489;50.834;6.752;2023-10-08T07:01:38;15.80;81.80
22645;DHT22;11489;50.834;6.752;2023-10-08T07:04:08;15.80;81.70
22645;DHT22;11489;50.834;6.752;2023-10-08T07:06:38;15.90;81.70
22645;DHT22;11489;50.834;6.752;2023-10-08T07:09:06;15.90;81.70
22645;DHT22;11489;50.834;6.752;2023-10-08T07:11:33;15.90;81.80
22645;DHT22;11489;50.834;6.752;2023-10-08T07:14:05;16.00;82.00
22645;DHT22;11489;50.834;6.752;2023-10-08T07:16:33;16.10;82.10
22645;DHT22;11489;50.834;6.752;2023-10-08T07:19:00;16.10;81.90
22645;DHT22;11489;50.834;6.752;2023-10-08T07:21:41;16.20;82.00
22645;DHT22;11489;50.834;6.752;2023-10-08T07:24:14;16.30;82.10
22645;DHT22;11489;50.834;6.752;2023-10-08T07:26:46;16.30;82.00
22645;DHT22;11489;50.834;6.752;2023-10-08T07:29:13;16.40;81.90
22645;DHT22;11489;50.834;6.752;2023-10-08T07:31:46;16.40;81.90
22645;DHT22;11489;50.834;6.752;2023-10-08T07:34:16;16.50;82.00
22645;DHT22;11489;50.834;6.752;2023-10-08T07:36:45;16.60;82.10
22645;DHT22;11489;50.834;6.752;2023-10-08T07:39:13;16.70;82.10
22645;DHT22;11489;50.834;6.752;2023-10-08T07:42:00;16.80;82.10
22645;DHT22;11489;50.834;6.752;2023-10-08T07:44:26;16.90;82.00
22645;DHT22;11489;50.834;6.752;2023-10-08T07:46:56;16.90;81.90
22645;DHT22;11489;50.834;6.752;2023-10-08T07:49:23;17.00;81.90
22645;DHT22;11489;50.834;6.752;2023-10-08T07:51:49;17.10;81.80
22645;DHT22;11489;50.834;6.752;2023-10-08T07:54:21;17.20;81.70
22645;DHT22;11489;50.834;6.752;2023-10-08T07:56:49;17.30;81.40
22645;DHT22;11489;50.834;6.752;2023-10-08T07:59:17;17.40;81.50
22645;DHT22;11489;50.834;6.752;2023-10-08T08:01:43;17.50;81.40
22645;DHT22;11489;50.834;6.752;2023-10-08T08:04:12;17.50;81.20
22645;DHT22;11489;50.834;6.752;2023-10-08T08:06:51;17.60;80.90
22645;DHT22;11489;50.834;6.752;2023-10-08T08:09:18;17.70;80.90
22645;DHT22;11489;50.834;6.752;2023-10-08T08:11:46;17.80;80.90
22645;DHT22;11489;50.834;6.752;2023-10-08T08:14:13;17.80;80.80
22645;DHT22;11489;50.834;6.752;2023-10-08T08:16:43;17.90;80.90
22645;DHT22;11489;50.834;6.752;2023-10-08T08:19:14;18.00;80.90
22645;DHT22;11489;50.834;6.752;2023-10-08T08:21:42;18.00;80.70
22645;DHT22;11489;50.834;6.752;2023-10-08T08:24:12;18.10;80.60
22645;DHT22;11489;50.834;6.752;2023-10-08T08:26:38;18.20;80.60
22645;DHT22;11489;50.834;6.752;2023-10-08T08:29:27;18.20;80.40
22645;DHT22;11489;50.834;6.752;2023-10-08T08:31:55;18.30;80.50
22645;DHT22;11489;50.834;6.752;2023-10-08T08:34:23;18.40;80.30
22645;DHT22;11489;50.834;6.752;2023-10-08T08:36:49;18.40;80.10
22645;DHT22;11489;50.834;6.752;2023-10-08T08:39:16;18.40;79.90
22645;DHT22;11489;50.834;6.752;2023-10-08T08:42:03;18.40;79.50
22645;DHT22;11489;50.834;6.752;2023-10-08T08:44:36;18.40;79.70
22645;DHT22;11489;50.834;6.752;2023-10-08T08:47:05;18.50;79.80
22645;DHT22;11489;50.834;6.752;2023-10-08T08:49:33;18.50;79.80
22645;DHT22;11489;50.834;6.752;2023-10-08T08:52:00;18.60;79.80
22645;DHT22;11489;50.834;6.752;2023-10-08T08:54:27;18.60;79.70
22645;DHT22;11489;50.834;6.752;2023-10-08T08:56:57;18.70;79.70
22645;DHT22;11489;50.834;6.752;2023-10-08T08:59:24;18.70;79.40
22645;DHT22;11489;50.834;6.752;2023-10-08T09:01:50;18.80;79.60
22645;DHT22;11489;50.834;6.752;2023-10-08T09:04:17;18.80;80.00
22645;DHT22;11489;50.834;6.752;2023-10-08T09:06:53;18.90;79.60
22645;DHT22;11489;50.834;6.752;2023-10-08T09:09:19;19.10;79.70
22645;DHT22;11489;50.834;6.752;2023-10-08T09:11:49;19.10;79.00
22645;DHT22;11489;50.834;6.752;2023-10-08T09:14:24;19.10;78.80
22645;DHT22;11489;50.834;6.752;2023-10-08T09:16:58;19.20;78.20
22645;DHT22;11489;50.834;6.752;2023-10-08T09:19:25;19.20;78.80
22645;DHT22;11489;50.834;6.752;2023-10-08T09:22:11;19.30;78.70
22645;DHT22;11489;50.834;6.752;2023-10-08T09:24:39;19.40;78.00
22645;DHT22;11489;50.834;6.752;2023-10-08T09:29:31;19.40;78.30
22645;DHT22;11489;50.834;6.752;2023-10-08T09:31:57;19.50;78.50
22645;DHT22;11489;50.834;6.752;2023-10-08T09:34:28;19.60;79.00
22645;DHT22;11489;50.834;6.752;2023-10-08T09:36:56;19.80;79.10
22645;DHT22;11489;50.834;6.752;2023-10-08T09:39:23;19.90;78.20
22645;DHT22;11489;50.834;6.752;2023-10-08T09:41:50;20.00;78.00
22645;DHT22;11489;50.834;6.752;2023-10-08T09:44:18;20.00;78.00
22645;DHT22;11489;50.834;6.752;2023-10-08T09:46:48;20.10;77.80
22645;DHT22;11489;50.834;6.752;2023-10-08T09:49:22;20.20;77.60
22645;DHT22;11489;50.834;6.752;2023-10-08T09:51:50;20.30;77.40
22645;DHT22;11489;50.834;6.752;2023-10-08T09:54:29;20.30;77.30
22645;DHT22;11489;50.834;6.752;2023-10-08T09:57:03;20.40;76.70
22645;DHT22;11489;50.834;6.752;2023-10-08T09:59:33;20.40;77.00
22645;DHT22;11489;50.834;6.752;2023-10-08T10:02:00;20.40;77.00
22645;DHT22;11489;50.834;6.752;2023-10-08T10:04:30;20.40;77.60
22645;DHT22;11489;50.834;6.752;2023-10-08T10:06:58;20.60;78.10
22645;DHT22;11489;50.834;6.752;2023-10-08T10:09:25;20.80;78.30
22645;DHT22;11489;50.834;6.752;2023-10-08T10:11:53;21.00;78.10
22645;DHT22;11489;50.834;6.752;2023-10-08T10:14:22;21.10;77.10
22645;DHT22;11489;50.834;6.752;2023-10-08T10:16:49;21.20;76.80
22645;DHT22;11489;50.834;6.752;2023-10-08T10:19:30;21.30;77.00
22645;DHT22;11489;50.834;6.752;2023-10-08T10:21:55;21.40;76.60
22645;DHT22;11489;50.834;6.752;2023-10-08T10:24:35;21.40;76.50
22645;DHT22;11489;50.834;6.752;2023-10-08T10:27:13;21.50;75.20
22645;DHT22;11489;50.834;6.752;2023-10-08T10:29:43;21.60;75.70
22645;DHT22;11489;50.834;6.752;2023-10-08T10:32:15;21.60;76.80
22645;DHT22;11489;50.834;6.752;2023-10-08T10:34:45;21.80;76.50
22645;DHT22;11489;50.834;6.752;2023-10-08T10:37:13;22.00;76.80
22645;DHT22;11489;50.834;6.752;2023-10-08T10:42:19;22.40;76.00
22645;DHT22;11489;50.834;6.752;2023-10-08T10:44:49;22.50;76.30
22645;DHT22;11489;50.834;6.752;2023-10-08T10:47:16;22.60;75.80
22645;DHT22;11489;50.834;6.752;2023-10-08T10:49:43;22.70;75.30
22645;DHT22;11489;50.834;6.752;2023-10-08T10:52:15;22.70;74.80
22645;DHT22;11489;50.834;6.752;2023-10-08T10:55:04;22.80;75.00
22645;DHT22;11489;50.834;6.752;2023-10-08T10:57:57;22.90;75.50
22645;DHT22;11489;50.834;6.752;2023-10-08T11:00:31;23.20;75.60
22645;DHT22;11489;50.834;6.752;2023-10-08T11:03:01;23.30;74.40
22645;DHT22;11489;50.834;6.752;2023-10-08T11:05:42;23.40;74.00
22645;DHT22;11489;50.834;6.752;2023-10-08T11:08:14;23.40;74.10
22645;DHT22;11489;50.834;6.752;2023-10-08T11:10:42;23.50;74.10
22645;DHT22;11489;50.834;6.752;2023-10-08T11:13:14;23.60;73.90
22645;DHT22;11489;50.834;6.752;2023-10-08T11:15:45;23.80;73.90
22645;DHT22;11489;50.834;6.752;2023-10-08T11:18:19;23.90;73.30
22645;DHT22;11489;50.834;6.752;2023-10-08T11:20:47;24.20;73.60
22645;DHT22;11489;50.834;6.752;2023-10-08T11:23:36;24.40;73.90
22645;DHT22;11489;50.834;6.752;2023-10-08T11:26:05;24.60;71.90
22645;DHT22;11489;50.834;6.752;2023-10-08T11:28:36;24.70;71.20
22645;DHT22;11489;50.834;6.752;2023-10-08T11:31:09;24.60;70.70
22645;DHT22;11489;50.834;6.752;2023-10-08T11:33:40;24.60;71.50
22645;DHT22;11489;50.834;6.752;2023-10-08T11:36:08;24.60;70.80
22645;DHT22;11489;50.834;6.752;2023-10-08T11:38:51;24.60;71.40
22645;DHT22;11489;50.834;6.752;2023-10-08T11:41:19;24.70;71.40
22645;DHT22;11489;50.834;6.752;2023-10-08T11:43:51;24.80;71.20
22645;DHT22;11489;50.834;6.752;2023-10-08T11:46:29;24.90;70.40
22645;DHT22;11489;50.834;6.752;2023-10-08T11:49:04;24.90;69.20
22645;DHT22;11489;50.834;6.752;2023-10-08T11:51:36;25.00;70.60
22645;DHT22;11489;50.834;6.752;2023-10-08T11:54:02;25.00;69.00
22645;DHT22;11489;50.834;6.752;2023-10-08T11:56:32;25.00;69.80
22645;DHT22;11489;50.834;6.752;2023-10-08T11:59:02;25.00;69.30
22645;DHT22;11489;50.834;6.752;2023-10-08T12:01:31;25.10;68.30
22645;DHT22;11489;50.834;6.752;2023-10-08T12:04:01;25.00;68.40
22645;DHT22;11489;50.834;6.752;2023-10-08T12:06:27;25.00;68.70
22645;DHT22;11489;50.834;6.752;2023-10-08T12:08:58;25.00;69.10
22645;DHT22;11489;50.834;6.752;2023-10-08T12:11:27;25.00;69.40
22645;DHT22;11489;50.834;6.752;2023-10-08T12:13:57;25.20;69.40
22645;DHT22;11489;50.834;6.752;2023-10-08T12:16:25;25.20;68.50
22645;DHT22;11489;50.834;6.752;2023-10-08T12:18:55;25.20;67.60
22645;DHT22;11489;50.834;6.752;2023-10-08T12:21:28;25.00;67.30
22645;DHT22;11489;50.834;6.752;2023-10-08T12:23:58;24.80;66.80
22645;DHT22;11489;50.834;6.752;2023-10-08T12:26:24;24.80;67.40
22645;DHT22;11489;50.834;6.752;2023-10-08T12:28:51;24.60;67.10
22645;DHT22;11489;50.834;6.752;2023-10-08T12:31:20;24.40;66.90
22645;DHT22;11489;50.834;6.752;2023-10-08T12:33:52;24.30;67.20
22645;DHT22;11489;50.834;6.752;2023-10-08T12:36:23;24.10;67.00
22645;DHT22;11489;50.834;6.752;2023-10-08T12:38:49;24.00;67.10
22645;DHT22;11489;50.834;6.752;2023-10-08T12:41:25;23.90;67.80
22645;DHT22;11489;50.834;6.752;2023-10-08T12:43:54;23.80;67.80
22645;DHT22;11489;50.834;6.752;2023-10-08T12:46:21;23.70;68.00
22645;DHT22;11489;50.834;6.752;2023-10-08T12:48:51;23.60;68.30
22645;DHT22;11489;50.834;6.752;2023-10-08T12:51:23;23.50;68.30
22645;DHT22;11489;50.834;6.752;2023-10-08T12:53:50;23.50;68.50
22645;DHT22;11489;50.834;6.752;2023-10-08T12:56:20;23.30;68.40
22645;DHT22;11489;50.834;6.752;2023-10-08T12:58:58;23.20;68.50
22645;DHT22;11489;50.834;6.752;2023-10-08T13:01:24;23.10;68.70
22645;DHT22;11489;50.834;6.752;2023-10-08T13:03:54;23.00;68.90
22645;DHT22;11489;50.834;6.752;2023-10-08T13:06:26;22.90;69.30
22645;DHT22;11489;50.834;6.752;2023-10-08T13:08:58;22.70;69.50
22645;DHT22;11489;50.834;6.752;2023-10-08T13:11:28;22.70;69.60
22645;DHT22;11489;50.834;6.752;2023-10-08T13:13:59;22.60;70.10
22645;DHT22;11489;50.834;6.752;2023-10-08T13:16:27;22.60;70.50
22645;DHT22;11489;50.834;6.752;2023-10-08T13:18:57;22.60;70.90
22645;DHT22;11489;50.834;6.752;2023-10-08T13:21:27;22.60;71.30
22645;DHT22;11489;50.834;6.752;2023-10-08T13:23:54;22.80;71.00
22645;DHT22;11489;50.834;6.752;2023-10-08T13:26:26;22.90;71.20
22645;DHT22;11489;50.834;6.752;2023-10-08T13:28:56;23.00;71.30
22645;DHT22;11489;50.834;6.752;2023-10-08T13:31:24;23.00;70.80
22645;DHT22;11489;50.834;6.752;2023-10-08T13:33:50;23.10;70.50
22645;DHT22;11489;50.834;6.752;2023-10-08T13:36:18;23.10;70.50
22645;DHT22;11489;50.834;6.752;2023-10-08T13:38:44;23.10;70.50
22645;DHT22;11489;50.834;6.752;2023-10-08T13:41:13;23.20;70.60
22645;DHT22;11489;50.834;6.752;2023-10-08T13:43:43;23.30;70.60
22645;DHT22;11489;50.834;6.752;2023-10-08T13:46:15;23.30;70.30
22645;DHT22;11489;50.834;6.752;2023-10-08T13:48:44;23.40;70.00
22645;DHT22;11489;50.834;6.752;2023-10-08T13:51:14;23.40;69.90
22645;DHT22;11489;50.834;6.752;2023-10-08T13:53:41;23.50;70.10
22645;DHT22;11489;50.834;6.752;2023-10-08T13:56:10;23.60;70.10
22645;DHT22;11489;50.834;6.752;2023-10-08T13:58:37;23.70;70.20
22645;DHT22;11489;50.834;6.752;2023-10-08T14:01:14;23.80;70.30
22645;DHT22;11489;50.834;6.752;2023-10-08T14:03:51;23.90;70.30
22645;DHT22;11489;50.834;6.752;2023-10-08T14:06:30;23.90;69.40
22645;DHT22;11489;50.834;6.752;2023-10-08T14:08:57;23.90;69.10
22645;DHT22;11489;50.834;6.752;2023-10-08T14:11:22;23.90;68.80
22645;DHT22;11489;50.834;6.752;2023-10-08T14:13:50;23.80;68.60
22645;DHT22;11489;50.834;6.752;2023-10-08T14:16:17;23.70;68.50
22645;DHT22;11489;50.834;6.752;2023-10-08T14:18:44;23.60;68.40
22645;DHT22;11489;50.834;6.752;2023-10-08T14:21:16;23.60;68.80
22645;DHT22;11489;50.834;6.752;2023-10-08T14:23:44;23.50;69.00
22645;DHT22;11489;50.834;6.752;2023-10-08T14:26:10;23.50;69.00
22645;DHT22;11489;50.834;6.752;2023-10-08T14:28:37;23.40;68.90
22645;DHT22;11489;50.834;6.752;2023-10-08T14:31:07;23.30;68.90
22645;DHT22;11489;50.834;6.752;2023-10-08T14:33:33;23.30;68.90
22645;DHT22;11489;50.834;6.752;2023-10-08T14:36:08;23.20;68.90
22645;DHT22;11489;50.834;6.752;2023-10-08T14:38:52;23.10;68.90
22645;DHT22;11489;50.834;6.752;2023-10-08T14:41:36;23.00;69.10
22645;DHT22;11489;50.834;6.752;2023-10-08T14:44:21;22.90;69.20
22645;DHT22;11489;50.834;6.752;2023-10-08T14:46:46;22.80;69.40
22645;DHT22;11489;50.834;6.752;2023-10-08T14:49:12;22.70;69.50
22645;DHT22;11489;50.834;6.752;2023-10-08T14:51:38;22.60;69.60
22645;DHT22;11489;50.834;6.752;2023-10-08T14:54:06;22.50;69.70
22645;DHT22;11489;50.834;6.752;2023-10-08T14:56:34;22.40;69.80
22645;DHT22;11489;50.834;6.752;2023-10-08T14:59:01;22.20;70.00
22645;DHT22;11489;50.834;6.752;2023-10-08T15:01:27;22.10;70.40
22645;DHT22;11489;50.834;6.752;2023-10-08T15:03:53;22.00;70.90
22645;DHT22;11489;50.834;6.752;2023-10-08T15:06:19;21.90;71.20
22645;DHT22;11489;50.834;6.752;2023-10-08T15:08:46;21.80;71.60
22645;DHT22;11489;50.834;6.752;2023-10-08T15:11:12;21.70;71.90
22645;DHT22;11489;50.834;6.752;2023-10-08T15:13:37;21.70;72.20
22645;DHT22;11489;50.834;6.752;2023-10-08T15:16:09;21.60;72.40
22645;DHT22;11489;50.834;6.752;2023-10-08T15:18:35;21.60;72.70
22645;DHT22;11489;50.834;6.752;2023-10-08T15:21:09;21.60;72.70
22645;DHT22;11489;50.834;6.752;2023-10-08T15:23:34;21.60;72.80
22645;DHT22;11489;50.834;6.752;2023-10-08T15:26:01;21.60;73.00
22645;DHT22;11489;50.834;6.752;2023-10-08T15:28:28;21.60;73.20
22645;DHT22;11489;50.834;6.752;2023-10-08T15:30:54;21.60;73.20
22645;DHT22;11489;50.834;6.752;2023-10-08T15:33:19;21.60;73.20
22645;DHT22;11489;50.834;6.752;2023-10-08T15:35:45;21.60;73.20
22645;DHT22;11489;50.834;6.752;2023-10-08T15:38:10;21.50;73.10
22645;DHT22;11489;50.834;6.752;2023-10-08T15:40:38;21.50;73.00
22645;DHT22;11489;50.834;6.752;2023-10-08T15:43:04;21.40;73.70
22645;DHT22;11489;50.834;6.752;2023-10-08T15:45:29;21.40;73.10
22645;DHT22;11489;50.834;6.752;2023-10-08T15:47:55;21.30;73.00
22645;DHT22;11489;50.834;6.752;2023-10-08T15:50:21;21.20;73.00
22645;DHT22;11489;50.834;6.752;2023-10-08T15:52:50;21.10;73.10
22645;DHT22;11489;50.834;6.752;2023-10-08T15:55:16;21.00;73.20
22645;DHT22;11489;50.834;6.752;2023-10-08T15:57:41;20.90;73.30
22645;DHT22;11489;50.834;6.752;2023-10-08T16:00:08;20.70;73.40